createdAt,value
2017-10-22T00:01:54.325Z,100991.24
2017-10-22T00:04:20.510Z,100996.05
2017-10-22T00:06:46.714Z,100990.37
2017-10-22T00:09:13.046Z,100990.84
2017-10-22T00:11:39.258Z,100983.40
2017-10-22T00:14:05.759Z,100977.77
2017-10-22T00:16:32.397Z,100975.15
2017-10-22T00:18:58.598Z,100975.09
2017-10-22T00:21:24.800Z,100979.02
2017-10-22T00:23:51.054Z,100976.87
2017-10-22T00:26:17.514Z,100979.96
2017-10-22T00:28:43.706Z,100980.33
2017-10-22T00:31:10.584Z,100968.14
2017-10-22T00:33:36.784Z,100971.21
2017-10-22T00:36:02.993Z,100972.06
2017-10-22T00:38:29.575Z,100972.52
2017-10-22T00:40:56.109Z,100982.14
2017-10-22T00:43:22.394Z,100980.39
2017-10-22T00:45:48.731Z,100976.48
2017-10-22T00:48:14.946Z,100979.11
2017-10-22T00:50:41.431Z,100974.30
2017-10-22T00:53:07.773Z,100971.27
2017-10-22T00:55:33.995Z,100968.61
2017-10-22T00:58:00.189Z,100967.33
2017-10-22T01:00:26.856Z,100964.23
2017-10-22T01:02:59.900Z,100959.43
2017-10-22T01:05:26.227Z,100952.43
2017-10-22T01:07:52.426Z,100952.90
2017-10-22T01:10:18.615Z,100948.05
2017-10-22T01:12:45.168Z,100951.99
2017-10-22T01:15:11.413Z,100956.37
2017-10-22T01:17:37.600Z,100950.31
2017-10-22T01:20:03.923Z,100955.12
2017-10-22T01:22:30.125Z,100945.99
2017-10-22T01:24:56.330Z,100953.89
2017-10-22T01:27:22.624Z,100944.68
2017-10-22T01:29:49.175Z,100948.21
2017-10-22T01:32:15.376Z,100943.38
2017-10-22T01:34:41.650Z,100941.59
2017-10-22T01:37:07.841Z,100937.22
2017-10-22T01:39:34.058Z,100932.03
2017-10-22T01:42:01.006Z,100934.72
2017-10-22T01:44:27.310Z,100940.34
2017-10-22T01:46:53.538Z,100929.88
2017-10-22T01:49:19.797Z,100932.94
2017-10-22T01:51:46.020Z,100926.34
2017-10-22T01:54:12.218Z,100929.44
2017-10-22T01:56:39.012Z,100925.06
2017-10-22T01:59:05.211Z,100922.03
2017-10-22T02:01:31.466Z,100921.59
2017-10-22T02:03:58.025Z,100919.38
2017-10-22T02:06:24.224Z,100919.81
2017-10-22T02:08:50.410Z,100921.59
2017-10-22T02:11:16.935Z,100924.28
2017-10-22T02:13:43.430Z,100920.34
2017-10-22T02:16:09.634Z,100919.44
2017-10-22T02:18:35.887Z,100919.88
2017-10-22T02:21:02.088Z,100920.72
2017-10-22T02:23:28.294Z,100918.56
2017-10-22T02:25:54.526Z,100916.34
2017-10-22T02:28:20.720Z,100911.16
2017-10-22T02:30:47.055Z,100897.63
2017-10-22T02:33:13.267Z,100904.63
2017-10-22T02:35:39.501Z,100902.01
2017-10-22T02:38:06.070Z,100900.32
2017-10-22T02:40:32.252Z,100901.16
2017-10-22T02:42:58.682Z,100900.73
2017-10-22T02:45:25.322Z,100894.63
2017-10-22T02:47:51.851Z,100900.32
2017-10-22T02:50:18.055Z,100894.16
2017-10-22T02:52:44.309Z,100898.13
2017-10-22T02:55:10.528Z,100896.41
2017-10-22T02:57:37.071Z,100895.13
2017-10-22T03:00:03.346Z,100891.64
2017-10-22T03:02:29.539Z,100889.02
2017-10-22T03:04:55.758Z,100891.64
2017-10-22T03:07:22.094Z,100885.98
2017-10-22T03:09:48.286Z,100890.80
2017-10-22T03:12:14.482Z,100889.92
2017-10-22T03:14:40.714Z,100889.02
2017-10-22T03:17:06.975Z,100885.55
2017-10-22T03:19:33.177Z,100886.95
2017-10-22T03:21:59.764Z,100890.89
2017-10-22T03:24:25.963Z,100886.52
2017-10-22T03:26:52.155Z,100886.08
2017-10-22T03:29:18.754Z,100888.23
2017-10-22T03:31:44.943Z,100887.73
2017-10-22T03:34:11.123Z,100883.39
2017-10-22T03:36:37.374Z,100887.33
2017-10-22T03:39:03.973Z,100884.30
2017-10-22T03:41:30.166Z,100886.92
2017-10-22T03:43:56.786Z,100884.70
2017-10-22T03:46:23.375Z,100878.14
2017-10-22T03:48:49.587Z,100882.95
2017-10-22T03:51:15.898Z,100882.11
2017-10-22T03:53:42.080Z,100880.39
2017-10-22T03:56:08.594Z,100878.61
2017-10-22T03:58:34.866Z,100875.18
2017-10-22T04:01:01.071Z,100876.92
2017-10-22T04:03:27.250Z,100873.49
2017-10-22T04:05:53.592Z,100876.95
2017-10-22T04:08:19.771Z,100872.59
2017-10-22T04:10:45.967Z,100877.33
2017-10-22T04:13:12.218Z,100871.21
2017-10-22T04:15:38.415Z,100867.34
2017-10-22T04:18:04.614Z,100866.91
2017-10-22T04:20:31.185Z,100859.44
2017-10-22T04:22:57.371Z,100867.74
2017-10-22T04:25:23.565Z,100867.34
2017-10-22T04:27:49.906Z,100868.21
2017-10-22T04:30:16.169Z,100867.30
2017-10-22T04:32:42.360Z,100866.09
2017-10-22T04:35:09.003Z,100863.87
2017-10-22T04:37:35.186Z,100871.34
2017-10-22T04:40:01.369Z,100864.78
2017-10-22T04:42:27.690Z,100858.66
2017-10-22T04:44:53.881Z,100865.16
2017-10-22T04:47:20.086Z,100855.53
2017-10-22T04:49:46.791Z,100855.59
2017-10-22T04:52:12.996Z,100856.47
2017-10-22T04:54:39.186Z,100859.56
2017-10-22T04:57:05.439Z,100852.16
2017-10-22T04:59:31.634Z,100847.83
2017-10-22T05:01:57.830Z,100841.73
2017-10-22T05:04:24.415Z,100838.33
2017-10-22T05:06:50.662Z,100831.77
2017-10-22T05:09:17.181Z,100835.27
2017-10-22T05:11:43.762Z,100830.93
2017-10-22T05:14:09.956Z,100831.80
2017-10-22T05:16:36.171Z,100833.55
2017-10-22T05:19:02.860Z,100833.09
2017-10-22T05:21:29.045Z,100838.73
2017-10-22T05:23:55.227Z,100835.67
2017-10-22T05:26:21.480Z,100836.05
2017-10-22T05:28:47.664Z,100840.80
2017-10-22T05:31:13.875Z,100838.64
2017-10-22T05:33:40.148Z,100841.17
2017-10-22T05:36:06.340Z,100835.45
2017-10-22T05:38:32.530Z,100843.36
2017-10-22T05:40:59.219Z,100840.73
2017-10-22T05:43:25.402Z,100845.54
2017-10-22T05:45:51.603Z,100842.98
2017-10-22T05:48:18.180Z,100841.70
2017-10-22T05:50:44.365Z,100841.70
2017-10-22T05:53:10.542Z,100840.86
2017-10-22T05:55:36.786Z,100839.52
2017-10-22T05:58:02.991Z,100840.83
2017-10-22T06:00:29.166Z,100837.77
2017-10-22T06:02:55.415Z,100838.64
2017-10-22T06:05:21.609Z,100841.27
2017-10-22T06:07:47.801Z,100843.08
2017-10-22T06:10:14.368Z,100837.39
2017-10-22T06:12:40.569Z,100837.36
2017-10-22T06:15:06.763Z,100842.61
2017-10-22T06:17:40.838Z,100839.11
2017-10-22T06:20:07.051Z,100834.70
2017-10-22T06:22:33.247Z,100837.73
2017-10-22T06:24:59.838Z,100838.64
2017-10-22T06:27:26.001Z,100837.36
2017-10-22T06:29:52.190Z,100843.89
2017-10-22T06:32:18.483Z,100840.89
2017-10-22T06:34:44.690Z,100842.61
2017-10-22T06:37:10.887Z,100841.67
2017-10-22T06:39:37.607Z,100836.86
2017-10-22T06:42:04.089Z,100838.17
2017-10-22T06:44:30.546Z,100840.39
2017-10-22T06:46:56.819Z,100842.05
2017-10-22T06:49:23.025Z,100836.83
2017-10-22T06:51:49.231Z,100836.36
2017-10-22T06:54:22.499Z,100838.95
2017-10-22T06:56:49.035Z,100839.36
2017-10-22T06:59:15.329Z,100837.14
2017-10-22T07:01:41.676Z,100837.14
2017-10-22T07:04:08.236Z,100839.26
2017-10-22T07:06:34.430Z,100836.61
2017-10-22T07:09:00.995Z,100837.45
2017-10-22T07:11:27.200Z,100821.39
2017-10-22T07:13:53.388Z,100831.26
2017-10-22T07:16:19.722Z,100824.23
2017-10-22T07:18:45.922Z,100825.07
2017-10-22T07:21:12.111Z,100822.01
2017-10-22T07:23:38.350Z,100818.08
2017-10-22T07:26:05.717Z,100819.83
2017-10-22T07:28:31.884Z,100815.86
2017-10-22T07:30:58.147Z,100820.23
2017-10-22T07:33:24.350Z,100818.84
2017-10-22T07:38:23.535Z,100813.16
2017-10-22T07:40:50.050Z,100808.76
2017-10-22T07:43:16.230Z,100811.81
2017-10-22T07:45:42.490Z,100806.13
2017-10-22T07:48:08.914Z,100803.44
2017-10-22T07:50:35.107Z,100809.53
2017-10-22T07:53:01.365Z,100806.03
2017-10-22T07:55:27.572Z,100802.97
2017-10-22T07:57:53.751Z,100798.16
2017-10-22T08:00:19.983Z,100801.22
2017-10-22T08:02:46.149Z,100798.12
2017-10-22T08:05:19.382Z,100799.00
2017-10-22T08:07:46.034Z,100791.53
2017-10-22T08:10:12.218Z,100792.81
2017-10-22T08:12:38.473Z,100789.74
2017-10-22T08:15:04.697Z,100790.11
2017-10-22T08:17:31.153Z,100784.42
2017-10-22T08:19:57.834Z,100786.98
2017-10-22T08:24:55.773Z,100786.00
2017-10-22T08:27:22.313Z,100792.05
2017-10-22T08:29:48.745Z,100788.05
2017-10-22T08:32:15.276Z,100786.73
2017-10-22T08:34:41.815Z,100788.02
2017-10-22T08:37:08.003Z,100787.10
2017-10-22T08:39:34.186Z,100784.48
2017-10-22T08:42:00.806Z,100790.09
2017-10-22T08:44:27.007Z,100789.15
2017-10-22T08:46:53.314Z,100785.98
2017-10-22T08:49:19.713Z,100787.62
2017-10-22T08:51:45.934Z,100782.77
2017-10-22T08:54:12.142Z,100787.14
2017-10-22T08:56:38.725Z,100786.67
2017-10-22T09:06:02.461Z,100787.03
2017-10-22T09:08:28.668Z,100788.34
2017-10-22T09:10:54.882Z,100789.19
2017-10-22T09:13:21.394Z,100790.58
2017-10-22T09:15:47.583Z,100788.02
2017-10-22T09:18:14.009Z,100791.59
2017-10-22T09:20:40.748Z,100790.31
2017-10-22T09:23:06.925Z,100782.87
2017-10-22T09:25:33.122Z,100793.78
2017-10-22T09:27:59.471Z,100789.44
2017-10-22T09:30:25.661Z,100788.16
2017-10-22T09:32:51.854Z,100786.02
2017-10-22T09:35:18.212Z,100789.08
2017-10-22T09:37:44.443Z,100788.16
2017-10-22T09:40:10.931Z,100791.27
2017-10-22T09:42:37.173Z,100796.52
2017-10-22T09:45:03.410Z,100787.73
2017-10-22T09:47:29.618Z,100788.60
2017-10-22T09:49:56.045Z,100793.42
2017-10-22T09:52:22.280Z,100789.95
2017-10-22T09:54:48.473Z,100797.02
2017-10-22T09:57:14.826Z,100788.78
2017-10-22T09:59:41.093Z,100793.63
2017-10-22T10:02:07.368Z,100791.41
2017-10-22T10:04:33.702Z,100790.09
2017-10-22T10:06:59.953Z,100791.44
2017-10-22T10:09:26.256Z,100796.77
2017-10-22T10:11:52.988Z,100790.23
2017-10-22T10:14:19.269Z,100799.46
2017-10-22T10:16:45.630Z,100799.89
2017-10-22T10:19:12.048Z,100804.30
2017-10-22T10:21:38.320Z,100796.44
2017-10-22T10:24:04.537Z,100801.72
2017-10-22T10:26:31.276Z,100804.81
2017-10-22T10:28:57.741Z,100804.41
2017-10-22T10:31:23.933Z,100803.09
2017-10-22T10:33:50.181Z,100801.34
2017-10-22T10:36:16.379Z,100805.31
2017-10-22T10:38:42.831Z,100802.26
2017-10-22T10:41:09.476Z,100807.41
2017-10-22T10:43:35.694Z,100800.44
2017-10-22T10:46:01.894Z,100802.63
2017-10-22T10:48:28.565Z,100801.81
2017-10-22T10:50:54.814Z,100797.41
2017-10-22T10:53:21.256Z,100796.53
2017-10-22T10:55:47.500Z,100801.78
2017-10-22T10:58:13.699Z,100797.88
2017-10-22T11:00:40.142Z,100800.47
2017-10-22T11:03:06.822Z,100793.84
2017-10-22T11:05:33.032Z,100794.75
2017-10-22T11:07:59.230Z,100790.38
2017-10-22T11:10:25.926Z,100798.25
2017-10-22T11:12:52.181Z,100800.88
2017-10-22T11:15:18.394Z,100800.88
2017-10-22T11:17:44.654Z,100800.07
2017-10-22T11:20:10.859Z,100797.48
2017-10-22T11:22:37.321Z,100790.45
2017-10-22T11:25:03.961Z,100786.98
2017-10-22T11:27:30.152Z,100787.86
2017-10-22T11:29:56.337Z,100790.92
2017-10-22T11:32:23.003Z,100792.67
2017-10-22T11:34:49.219Z,100790.95
2017-10-22T11:37:15.401Z,100794.38
2017-10-22T11:39:41.653Z,100793.03
2017-10-22T11:42:08.172Z,100785.16
2017-10-22T11:44:34.349Z,100785.20
2017-10-22T11:47:00.614Z,100784.36
2017-10-22T11:49:26.818Z,100781.73
2017-10-22T11:51:53.285Z,100783.52
2017-10-22T11:54:19.877Z,100778.23
2017-10-22T11:56:46.066Z,100781.30
2017-10-22T11:59:12.253Z,100782.09
2017-10-22T12:01:38.610Z,100783.41
2017-10-22T12:04:05.051Z,100789.94
2017-10-22T12:06:31.286Z,100784.69
2017-10-22T12:08:57.597Z,100785.13
2017-10-22T12:11:23.805Z,100786.44
2017-10-22T12:13:49.987Z,100786.44
2017-10-22T12:16:16.599Z,100784.22
2017-10-22T12:18:42.797Z,100787.28
2017-10-22T12:21:09.001Z,100781.62
2017-10-22T12:23:36.001Z,100781.19
2017-10-22T12:26:02.199Z,100782.91
2017-10-22T12:28:28.400Z,100783.78
2017-10-22T12:30:55.090Z,100779.80
2017-10-22T12:33:21.282Z,100778.89
2017-10-22T12:35:47.478Z,100780.21
2017-10-22T12:38:13.822Z,100782.91
2017-10-22T12:40:40.020Z,100780.28
2017-10-22T12:43:06.216Z,100779.37
2017-10-22T12:45:33.024Z,100783.30
2017-10-22T12:47:59.273Z,100778.49
2017-10-22T12:50:25.733Z,100784.18
2017-10-22T12:52:52.104Z,100783.74
2017-10-22T12:55:18.333Z,100784.95
2017-10-22T12:57:44.823Z,100789.77
2017-10-22T13:00:11.395Z,100790.23
2017-10-22T13:02:37.572Z,100795.95
2017-10-22T13:05:03.766Z,100789.83
2017-10-22T13:07:30.354Z,100793.77
2017-10-22T13:09:56.545Z,100794.64
2017-10-22T13:12:22.783Z,100794.17
2017-10-22T13:14:49.123Z,100794.14
2017-10-22T13:17:15.323Z,100790.60
2017-10-22T13:19:41.521Z,100792.79
2017-10-22T13:22:07.774Z,100785.31
2017-10-22T13:24:33.992Z,100787.94
2017-10-22T13:27:00.170Z,100789.33
2017-10-22T13:29:26.427Z,100792.39
2017-10-22T13:31:52.942Z,100787.20
2017-10-22T13:34:19.130Z,100786.30
2017-10-22T13:36:45.378Z,100796.77
2017-10-22T13:39:11.600Z,100796.29
2017-10-22T13:41:37.802Z,100792.35
2017-10-22T13:44:04.186Z,100798.91
2017-10-22T13:46:30.378Z,100802.38
2017-10-22T13:48:56.591Z,100802.02
2017-10-22T13:51:23.790Z,100805.58
2017-10-22T13:53:50.204Z,100810.43
2017-10-22T13:56:16.396Z,100814.37
2017-10-22T13:58:42.750Z,100817.47
2017-10-22T14:01:09.216Z,100818.30
2017-10-22T14:03:35.406Z,100816.52
2017-10-22T14:06:01.717Z,100822.64
2017-10-22T14:08:27.921Z,100820.05
2017-10-22T14:10:54.098Z,100827.45
2017-10-22T14:13:20.430Z,100831.33
2017-10-22T14:15:46.627Z,100832.64
2017-10-22T14:18:12.819Z,100830.42
2017-10-22T14:20:39.138Z,100829.03
2017-10-22T14:23:05.320Z,100831.62
2017-10-22T14:25:31.527Z,100830.28
2017-10-22T14:27:57.778Z,100830.28
2017-10-22T14:30:23.978Z,100831.99
2017-10-22T14:32:50.494Z,100840.34
2017-10-22T14:35:16.833Z,100838.19
2017-10-22T14:37:43.355Z,100843.41
2017-10-22T14:40:09.545Z,100842.90
2017-10-22T14:42:35.871Z,100846.36
2017-10-22T14:45:02.346Z,100847.64
2017-10-22T14:47:28.779Z,100849.36
2017-10-22T14:49:55.036Z,100845.42
2017-10-22T14:52:21.242Z,100854.20
2017-10-22T14:54:47.768Z,100849.39
2017-10-22T14:57:14.070Z,100849.94
2017-10-22T14:59:40.279Z,100850.84
2017-10-22T15:02:06.526Z,100858.79
2017-10-22T15:04:33.255Z,100857.98
2017-10-22T15:06:59.448Z,100866.36
2017-10-22T15:09:25.734Z,100869.05
2017-10-22T15:11:51.976Z,100862.49
2017-10-22T15:14:18.518Z,100872.12
2017-10-22T15:16:44.848Z,100870.80
2017-10-22T15:19:11.103Z,100868.66
2017-10-22T15:21:37.306Z,100871.68
2017-10-22T15:24:03.600Z,100874.34
2017-10-22T15:26:29.834Z,100868.62
2017-10-22T15:28:56.011Z,100868.62
2017-10-22T15:31:22.339Z,100876.49
2017-10-22T15:33:48.542Z,100879.96
2017-10-22T15:36:14.763Z,100879.09
2017-10-22T15:38:41.371Z,100881.27
2017-10-22T15:41:07.845Z,100886.95
2017-10-22T15:43:34.035Z,100894.39
2017-10-22T15:46:00.663Z,100894.43
2017-10-22T15:48:27.146Z,100897.97
2017-10-22T15:50:53.337Z,100900.15
2017-10-22T15:53:19.658Z,100901.09
2017-10-22T15:55:45.904Z,100898.50
2017-10-22T15:58:12.081Z,100900.69
2017-10-22T16:00:38.748Z,100898.53
2017-10-22T16:03:04.950Z,100904.22
2017-10-22T16:05:31.151Z,100904.22
2017-10-22T16:07:57.487Z,100907.78
2017-10-22T16:10:23.688Z,100899.44
2017-10-22T16:12:49.884Z,100902.09
2017-10-22T16:15:16.177Z,100905.63
2017-10-22T16:17:42.362Z,100901.72
2017-10-22T16:20:08.558Z,100907.38
2017-10-22T16:22:34.887Z,100915.75
2017-10-22T16:25:01.093Z,100912.25
2017-10-22T16:27:27.613Z,100919.25
2017-10-22T16:29:54.238Z,100926.25
2017-10-22T16:32:20.425Z,100923.66
2017-10-22T16:34:46.624Z,100924.13
2017-10-22T16:37:13.297Z,100927.63
2017-10-22T16:39:39.497Z,100927.66
2017-10-22T16:42:05.680Z,100932.09
2017-10-22T16:44:31.941Z,100932.50
2017-10-22T16:46:58.136Z,100931.63
2017-10-22T16:49:24.327Z,100937.34
2017-10-22T16:51:50.974Z,100940.90
2017-10-22T16:54:17.167Z,100946.61
2017-10-22T16:56:43.990Z,100947.05
2017-10-22T16:59:10.230Z,100944.90
2017-10-22T17:01:37.316Z,100946.20
2017-10-22T17:04:03.507Z,100939.20
2017-10-22T17:06:29.765Z,100950.55
2017-10-22T17:08:55.948Z,100956.23
2017-10-22T17:11:22.135Z,100960.17
2017-10-22T17:13:48.378Z,100962.36
2017-10-22T17:16:14.579Z,100964.55
2017-10-22T17:18:40.788Z,100965.45
2017-10-22T17:21:07.401Z,100963.70
2017-10-22T17:23:33.613Z,100963.30
2017-10-22T17:25:59.821Z,100967.63
2017-10-22T17:28:26.088Z,100972.45
2017-10-22T17:30:52.275Z,100969.86
2017-10-22T17:33:18.466Z,100973.79
2017-10-22T17:35:44.686Z,100971.63
2017-10-22T17:38:11.019Z,100977.29
2017-10-22T17:40:37.221Z,100984.31
2017-10-22T17:43:03.418Z,100984.75
2017-10-22T17:45:29.655Z,100984.72
2017-10-22T17:47:55.860Z,100990.41
2017-10-22T17:50:22.044Z,100986.94
2017-10-22T17:52:48.313Z,100985.63
2017-10-22T17:55:14.518Z,100996.50
2017-10-22T17:57:40.735Z,100996.09
2017-10-22T18:00:07.271Z,100995.19
2017-10-22T18:02:33.466Z,100995.25
2017-10-22T18:04:59.664Z,100990.88
2017-10-22T18:07:26.247Z,100995.72
2017-10-22T18:09:52.678Z,100994.84
2017-10-22T18:12:18.849Z,100997.02
2017-10-22T18:14:45.440Z,101004.05
2017-10-22T18:17:11.641Z,100997.92
2017-10-22T18:19:37.833Z,101005.36
2017-10-22T18:22:04.201Z,101008.86
2017-10-22T18:24:30.393Z,101010.64
2017-10-22T18:26:56.598Z,101011.92
2017-10-22T18:29:22.865Z,101014.58
2017-10-22T18:31:49.070Z,101015.05
2017-10-22T18:34:15.259Z,101015.92
2017-10-22T18:36:41.959Z,101012.01
2017-10-22T18:39:08.539Z,101010.29
2017-10-22T18:41:34.737Z,101006.80
2017-10-22T18:44:01.566Z,101012.48
2017-10-22T18:46:27.795Z,101010.28
2017-10-22T18:48:53.985Z,101014.22
2017-10-22T18:51:20.309Z,101025.62
2017-10-22T18:53:46.831Z,101019.50
2017-10-22T18:56:13.010Z,101027.86
2017-10-22T18:58:39.294Z,101027.02
2017-10-22T19:01:05.497Z,101027.37
2017-10-22T19:03:31.685Z,101028.71
2017-10-22T19:05:57.977Z,101025.73
2017-10-22T19:08:24.166Z,101030.55
2017-10-22T19:10:50.362Z,101026.14
2017-10-22T19:13:17.078Z,101024.42
2017-10-22T19:15:43.598Z,101022.70
2017-10-22T19:18:09.773Z,101022.70
2017-10-22T19:20:36.415Z,101024.45
2017-10-22T19:23:02.602Z,101029.31
2017-10-22T19:25:29.126Z,101022.77
2017-10-22T19:27:55.662Z,101033.69
2017-10-22T19:30:22.198Z,101029.81
2017-10-22T19:32:48.385Z,101030.65
2017-10-22T19:35:14.741Z,101028.47
2017-10-22T19:37:40.935Z,101034.13
2017-10-22T19:40:07.422Z,101036.33
2017-10-22T19:42:33.665Z,101044.64
2017-10-22T19:44:59.842Z,101038.95
2017-10-22T19:47:26.303Z,101045.11
2017-10-22T19:49:52.697Z,101046.86
2017-10-22T19:52:18.864Z,101044.64
2017-10-22T19:54:45.062Z,101039.45
2017-10-22T19:57:11.326Z,101047.78
2017-10-22T19:59:37.856Z,101049.12
2017-10-22T20:02:04.291Z,101050.00
2017-10-22T20:04:30.973Z,101055.21
2017-10-22T20:06:57.174Z,101058.30
2017-10-22T20:09:23.690Z,101056.53
2017-10-22T20:11:50.332Z,101058.73
2017-10-22T20:14:16.865Z,101059.67
2017-10-22T20:16:43.051Z,101061.00
2017-10-22T20:19:09.276Z,101056.17
2017-10-22T20:21:35.465Z,101061.84
2017-10-22T20:24:01.666Z,101057.92
2017-10-22T20:26:27.948Z,101056.61
2017-10-22T20:28:54.170Z,101060.98
2017-10-22T20:31:20.378Z,101063.63
2017-10-22T20:33:46.723Z,101067.53
2017-10-22T20:36:13.227Z,101066.66
2017-10-22T20:38:39.430Z,101069.72
2017-10-22T20:41:05.694Z,101068.84
2017-10-22T20:43:31.882Z,101068.88
2017-10-22T20:45:58.077Z,101071.91
2017-10-22T20:48:24.398Z,101074.94
2017-10-22T20:50:50.602Z,101077.16
2017-10-22T20:53:16.773Z,101074.13
2017-10-22T20:55:43.030Z,101077.59
2017-10-22T20:58:09.315Z,101077.61
2017-10-22T21:00:35.514Z,101087.70
2017-10-22T21:03:01.762Z,101082.88
2017-10-22T21:05:27.977Z,101084.23
2017-10-22T21:07:54.167Z,101084.20
2017-10-22T21:10:20.882Z,101083.33
2017-10-22T21:12:47.075Z,101090.70
2017-10-22T21:15:13.257Z,101087.64
2017-10-22T21:17:39.794Z,101088.08
2017-10-22T21:20:05.977Z,101085.89
2017-10-22T21:22:32.158Z,101089.85
2017-10-22T21:24:58.759Z,101088.55
2017-10-22T21:27:24.945Z,101085.92
2017-10-22T21:29:51.144Z,101089.85
2017-10-22T21:32:17.475Z,101089.85
2017-10-22T21:34:43.658Z,101085.45
2017-10-22T21:37:09.882Z,101085.92
2017-10-22T21:39:36.213Z,101088.10
2017-10-22T21:42:02.394Z,101090.73
2017-10-22T21:44:28.586Z,101089.47
2017-10-22T21:46:55.478Z,101093.41
2017-10-22T21:49:21.669Z,101092.53
2017-10-22T21:51:47.857Z,101093.81
2017-10-22T21:54:14.366Z,101101.70
2017-10-22T21:56:40.801Z,101099.96
2017-10-22T21:59:07.177Z,101106.08
2017-10-22T22:01:33.494Z,101109.16
2017-10-22T22:03:59.695Z,101106.16
2017-10-22T22:06:25.878Z,101104.86
2017-10-22T22:08:52.160Z,101108.36
2017-10-22T22:11:18.348Z,101110.55
2017-10-22T22:13:44.805Z,101114.05
2017-10-22T22:16:11.360Z,101107.03
2017-10-22T22:18:37.553Z,101104.38
2017-10-22T22:21:03.735Z,101109.55
2017-10-22T22:23:30.380Z,101109.11
2017-10-22T22:25:56.570Z,101111.70
2017-10-22T22:28:23.099Z,101111.69
2017-10-22T22:30:49.782Z,101113.88
2017-10-22T22:33:15.967Z,101112.09
2017-10-22T22:35:42.155Z,101111.64
2017-10-22T22:38:08.731Z,101114.67
2017-10-22T22:40:35.262Z,101112.95
2017-10-22T22:43:01.454Z,101112.07
2017-10-22T22:45:27.703Z,101110.35
2017-10-22T22:47:53.887Z,101106.80
2017-10-22T22:50:20.065Z,101109.89
2017-10-22T22:52:46.394Z,101108.11
2017-10-22T22:55:12.581Z,101101.99
2017-10-22T22:57:38.770Z,101101.09
2017-10-22T23:00:05.126Z,101102.84
2017-10-22T23:02:31.319Z,101104.59
2017-10-22T23:04:57.557Z,101100.19
2017-10-22T23:07:23.800Z,101099.31
2017-10-22T23:09:49.994Z,101103.25
2017-10-22T23:12:16.172Z,101101.06
2017-10-22T23:14:42.866Z,101101.09
2017-10-22T23:17:09.402Z,101096.72
2017-10-22T23:19:35.581Z,101101.56
2017-10-22T23:22:01.906Z,101102.84
2017-10-22T23:24:28.099Z,101100.66
2017-10-22T23:26:54.354Z,101101.97
2017-10-22T23:29:20.671Z,101100.66
2017-10-22T23:31:46.841Z,101106.31
2017-10-22T23:34:13.024Z,101103.69
2017-10-22T23:36:39.675Z,101109.38
2017-10-22T23:39:06.167Z,101108.01
2017-10-22T23:41:32.343Z,101102.76
2017-10-22T23:43:58.937Z,101102.38
2017-10-22T23:46:25.118Z,101106.28
2017-10-22T23:48:51.598Z,101103.69
2017-10-22T23:51:18.181Z,101109.37
2017-10-22T23:53:44.367Z,101108.94
2017-10-22T23:56:10.559Z,101107.57
2017-10-22T23:58:36.779Z,101107.16
